Time;durP1;ratioP1;P1;durP2;ratioP2;P2;SDS_P1;SDS_P2;PMS_P1;PMS_P2;Temp;Humidity;BMP_temperature;BMP_pressure;BME280_temperature;BME280_humidity;BME280_pressure;Samples;Min_cycle;Max_cycle;Signal;HPM_P1;HPM_P2
2021/05/11 00:01:58;;;;;;;6.97;4.37;;;15.50;81.70;;;;;;4411119;32;20477;-80
2021/05/11 00:04:24;;;;;;;11.00;4.67;;;15.50;81.90;;;;;;4425706;32;20210;-80
2021/05/11 00:06:51;;;;;;;9.67;4.50;;;15.40;81.90;;;;;;4426413;32;20216;-81
2021/05/11 00:09:18;;;;;;;8.70;4.60;;;15.50;82.20;;;;;;4425754;32;20151;-81
2021/05/11 00:11:45;;;;;;;8.13;4.50;;;15.30;83.60;;;;;;4425729;32;20465;-80
2021/05/11 00:14:11;;;;;;;8.30;4.63;;;15.30;82.90;;;;;;4424910;32;20243;-80
2021/05/11 00:16:38;;;;;;;5.90;4.50;;;15.30;83.00;;;;;;4427571;32;20202;-79
2021/05/11 00:19:07;;;;;;;7.70;4.70;;;15.20;83.30;;;;;;4426164;32;20147;-80
2021/05/11 00:21:34;;;;;;;8.70;4.50;;;15.30;83.00;;;;;;4426038;32;20480;-80
2021/05/11 00:24:00;;;;;;;7.30;4.83;;;15.20;83.10;;;;;;4426497;32;20541;-80
2021/05/11 00:26:27;;;;;;;9.27;4.83;;;15.20;83.30;;;;;;4426275;32;20148;-80
2021/05/11 00:28:53;;;;;;;9.80;5.00;;;15.20;83.50;;;;;;4426063;32;20520;-80
2021/05/11 00:31:20;;;;;;;8.10;4.27;;;15.10;84.00;;;;;;4425916;32;20142;-80
2021/05/11 00:33:46;;;;;;;9.03;4.77;;;15.10;84.00;;;;;;4425953;32;20165;-80
2021/05/11 00:36:13;;;;;;;8.00;4.70;;;15.10;85.20;;;;;;4425128;32;20191;-80
2021/05/11 00:38:39;;;;;;;8.40;5.17;;;15.10;84.70;;;;;;4426664;32;20472;-80
2021/05/11 00:41:06;;;;;;;7.17;5.00;;;15.10;84.80;;;;;;4425612;32;20163;-80
2021/05/11 00:43:32;;;;;;;9.13;5.00;;;15.00;85.20;;;;;;4425782;32;20138;-80
2021/05/11 00:45:59;;;;;;;8.10;4.80;;;15.00;85.40;;;;;;4425693;32;20192;-80
2021/05/11 00:48:25;;;;;;;8.53;5.17;;;15.00;85.50;;;;;;4425424;32;20155;-80
2021/05/11 00:50:52;;;;;;;6.93;4.77;;;15.00;85.20;;;;;;4425636;32;20234;-80
2021/05/11 00:53:19;;;;;;;7.03;4.57;;;15.00;85.20;;;;;;4425682;32;20155;-80
2021/05/11 00:55:45;;;;;;;6.90;4.57;;;15.00;86.20;;;;;;4425605;32;20189;-80
2021/05/11 00:58:13;;;;;;;10.67;5.03;;;15.00;85.50;;;;;;4425645;32;20150;-80
2021/05/11 01:00:39;;;;;;;8.90;4.80;;;15.00;85.80;;;;;;4426343;32;20173;-80
2021/05/11 01:03:06;;;;;;;9.33;4.63;;;14.90;85.90;;;;;;4425370;32;20189;-80
2021/05/11 01:05:32;;;;;;;8.40;5.23;;;14.90;86.40;;;;;;4426385;32;20151;-80
2021/05/11 01:07:59;;;;;;;10.60;5.17;;;14.90;86.70;;;;;;4425417;32;20146;-80
2021/05/11 01:10:25;;;;;;;8.63;5.03;;;14.80;86.40;;;;;;4425753;32;20162;-80
2021/05/11 01:12:52;;;;;;;7.40;4.87;;;14.80;87.70;;;;;;4425904;32;20169;-80
2021/05/11 01:15:18;;;;;;;9.70;4.83;;;14.80;87.20;;;;;;4425314;32;20525;-80
2021/05/11 01:17:55;;;;;;;8.27;4.70;;;14.70;87.20;;;;;;4425319;32;20151;-80
2021/05/11 01:20:28;;;;;;;7.63;5.00;;;14.60;88.40;;;;;;4425360;32;20162;-80
2021/05/11 01:26:04;;;;;;;8.27;5.70;;;14.60;88.80;;;;;;4362556;32;20179;-80
2021/05/11 01:28:44;;;;;;;8.87;4.90;;;14.50;89.10;;;;;;4363235;32;20412;-80
2021/05/11 01:31:30;;;;;;;10.03;5.40;;;14.50;89.80;;;;;;4364111;32;20369;-80
2021/05/11 01:48:00;;;;;;;9.07;5.20;;;14.30;90.70;;;;;;4333303;33;20359;-82
2021/05/11 01:50:36;;;;;;;9.73;4.97;;;14.30;90.70;;;;;;4333934;33;20177;-81
2021/05/11 01:53:39;;;;;;;10.10;4.67;;;14.30;90.50;;;;;;4334445;33;20164;-80
2021/05/11 02:23:16;;;;;;;8.77;4.83;;;14.10;91.40;;;;;;4361929;32;20171;-84
2021/05/11 02:25:43;;;;;;;11.27;4.60;;;14.10;91.40;;;;;;4362170;32;20486;-86
2021/05/11 02:28:09;;;;;;;7.20;4.50;;;14.00;91.80;;;;;;4361313;32;20151;-85
2021/05/11 02:30:36;;;;;;;7.27;4.60;;;14.00;92.20;;;;;;4361348;33;20222;-77
2021/05/11 02:33:02;;;;;;;8.07;4.67;;;14.00;91.90;;;;;;4361936;32;20156;-82
2021/05/11 02:35:29;;;;;;;8.83;4.67;;;13.90;92.00;;;;;;4361796;32;20151;-82
2021/05/11 02:37:56;;;;;;;7.23;4.50;;;13.90;92.10;;;;;;4361513;32;20190;-82
2021/05/11 02:40:23;;;;;;;8.83;4.50;;;13.90;92.40;;;;;;4361283;32;20157;-81
2021/05/11 02:42:54;;;;;;;7.87;4.67;;;13.80;92.40;;;;;;4361736;33;20243;-82
2021/05/11 02:45:21;;;;;;;6.80;4.60;;;13.80;92.40;;;;;;4362243;33;20222;-82
2021/05/11 02:47:48;;;;;;;8.47;4.80;;;13.80;92.50;;;;;;4361611;33;20151;-82
2021/05/11 02:50:28;;;;;;;8.07;4.80;;;13.80;92.70;;;;;;4361336;33;20164;-81
2021/05/11 02:52:55;;;;;;;8.13;5.00;;;13.70;93.00;;;;;;4402756;32;20293;-82
2021/05/11 02:55:22;;;;;;;5.23;4.53;;;13.70;92.90;;;;;;4406090;32;20249;-82
2021/05/11 02:57:49;;;;;;;6.07;4.30;;;13.70;93.20;;;;;;4423937;32;20158;-82
2021/05/11 03:00:18;;;;;;;11.53;5.30;;;13.70;93.30;;;;;;4424300;32;20433;-82
2021/05/11 03:02:45;;;;;;;9.90;4.63;;;13.60;93.40;;;;;;4424101;32;20194;-82
2021/05/11 03:05:12;;;;;;;7.07;4.50;;;13.60;93.50;;;;;;4424210;32;20220;-82
2021/05/11 03:07:39;;;;;;;9.27;5.10;;;13.60;93.80;;;;;;4424349;32;20150;-81
2021/05/11 03:10:07;;;;;;;9.07;4.53;;;13.60;93.70;;;;;;4424357;32;20197;-82
2021/05/11 03:12:34;;;;;;;6.93;4.53;;;13.50;94.00;;;;;;4424170;32;20194;-81
2021/05/11 03:15:00;;;;;;;7.80;4.50;;;13.60;94.00;;;;;;4424056;32;20159;-82
2021/05/11 03:17:27;;;;;;;7.37;4.77;;;13.50;94.20;;;;;;4424159;32;20169;-82
2021/05/11 03:19:54;;;;;;;6.27;4.57;;;13.50;94.30;;;;;;4424033;32;20163;-82
2021/05/11 03:22:21;;;;;;;7.50;4.87;;;13.50;94.30;;;;;;4424978;32;20206;-82
2021/05/11 03:24:47;;;;;;;10.33;4.63;;;13.40;94.40;;;;;;4424789;32;20184;-82
2021/05/11 03:27:16;;;;;;;11.43;4.67;;;13.50;94.50;;;;;;4424963;32;20273;-82
2021/05/11 03:29:43;;;;;;;7.03;4.90;;;13.50;94.40;;;;;;4424013;32;20151;-83
2021/05/11 03:32:10;;;;;;;6.73;4.43;;;13.50;94.40;;;;;;4423913;32;20149;-82
2021/05/11 03:34:37;;;;;;;9.33;5.13;;;13.40;94.60;;;;;;4423462;32;20178;-82
2021/05/11 03:37:04;;;;;;;7.63;4.40;;;13.40;94.70;;;;;;4423818;32;20170;-82
2021/05/11 03:39:38;;;;;;;8.50;4.77;;;13.40;95.10;;;;;;4423884;32;20148;-82
2021/05/11 03:42:29;;;;;;;7.17;4.80;;;13.50;95.00;;;;;;4423624;32;20159;-82
2021/05/11 03:44:59;;;;;;;7.00;4.97;;;13.50;94.50;;;;;;4424533;32;20146;-83
2021/05/11 03:47:28;;;;;;;7.47;4.90;;;13.50;94.50;;;;;;4410981;32;20180;-83
2021/05/11 03:49:55;;;;;;;9.57;4.87;;;13.50;94.30;;;;;;4426253;32;20173;-83
2021/05/11 03:52:22;;;;;;;9.03;4.77;;;13.60;94.00;;;;;;4426386;32;20197;-84
2021/05/11 03:54:49;;;;;;;8.57;4.67;;;13.60;94.00;;;;;;4426899;32;20188;-82
2021/05/11 03:57:15;;;;;;;7.20;4.90;;;13.60;94.30;;;;;;4426882;32;20192;-82
2021/05/11 03:59:42;;;;;;;9.03;5.30;;;13.70;93.80;;;;;;4428144;32;20374;-82
2021/05/11 04:02:09;;;;;;;9.20;5.00;;;13.80;93.70;;;;;;4426331;32;20553;-82
2021/05/11 04:04:36;;;;;;;9.13;4.93;;;13.80;93.80;;;;;;4426620;32;20194;-82
2021/05/11 04:07:06;;;;;;;7.20;4.47;;;13.90;93.50;;;;;;4426540;32;20186;-83
2021/05/11 04:09:42;;;;;;;10.33;4.90;;;13.90;93.50;;;;;;4427841;32;20198;-82
2021/05/11 04:17:21;;;;;;;8.87;4.70;;;14.00;92.90;;;;;;4426591;32;20235;-82
2021/05/11 04:19:48;;;;;;;7.90;4.80;;;14.00;92.90;;;;;;4426194;32;20151;-82
2021/05/11 04:22:16;;;;;;;7.40;4.80;;;14.10;92.80;;;;;;4425969;32;20163;-83
2021/05/11 04:24:43;;;;;;;8.63;5.10;;;14.10;92.80;;;;;;4426188;32;20165;-82
2021/05/11 04:27:10;;;;;;;7.40;5.00;;;14.10;92.50;;;;;;4425781;32;20448;-83
2021/05/11 04:29:37;;;;;;;6.33;4.57;;;14.10;92.50;;;;;;4426090;32;20216;-83
2021/05/11 04:32:04;;;;;;;10.83;5.40;;;14.30;92.10;;;;;;4426788;32;20157;-83
2021/05/11 04:34:31;;;;;;;8.93;4.97;;;14.40;91.90;;;;;;4426006;32;20193;-82
2021/05/11 04:36:58;;;;;;;8.60;4.80;;;14.40;91.70;;;;;;4427453;32;20174;-82
2021/05/11 04:39:25;;;;;;;9.00;5.00;;;14.50;91.60;;;;;;4412029;32;20147;-83
2021/05/11 04:41:52;;;;;;;7.47;5.10;;;14.60;91.40;;;;;;4425743;32;20186;-82
2021/05/11 04:44:20;;;;;;;7.10;4.80;;;14.70;91.40;;;;;;4425676;32;20162;-82
2021/05/11 04:46:51;;;;;;;8.73;4.73;;;14.70;91.00;;;;;;4426057;32;20190;-84
2021/05/11 04:49:18;;;;;;;8.40;5.27;;;14.80;90.60;;;;;;4425947;32;20173;-84
2021/05/11 04:51:46;;;;;;;11.20;5.40;;;14.80;90.60;;;;;;4412225;32;20169;-83
2021/05/11 04:54:13;;;;;;;7.50;5.10;;;14.90;90.60;;;;;;4425753;32;20155;-82
2021/05/11 04:56:40;;;;;;;10.93;4.80;;;14.90;90.40;;;;;;4425494;32;20206;-83
2021/05/11 04:59:06;;;;;;;10.47;5.17;;;15.00;90.50;;;;;;4427149;32;20216;-83
2021/05/11 05:01:34;;;;;;;9.50;5.00;;;15.20;90.10;;;;;;4425806;32;20206;-83
2021/05/11 05:04:02;;;;;;;7.80;4.80;;;15.30;88.90;;;;;;4426465;32;20190;-83
2021/05/11 05:06:29;;;;;;;8.00;4.73;;;15.40;88.30;;;;;;4425428;32;20147;-84
2021/05/11 05:08:56;;;;;;;7.67;4.43;;;15.50;87.00;;;;;;4426814;32;20197;-81
2021/05/11 05:11:23;;;;;;;7.13;4.90;;;15.50;87.20;;;;;;4425426;32;20202;-94
2021/05/11 05:13:50;;;;;;;8.20;5.03;;;15.60;86.70;;;;;;4424635;32;20166;-95
2021/05/11 05:16:16;;;;;;;9.67;5.37;;;15.80;86.40;;;;;;4425820;32;20143;-84
2021/05/11 05:18:43;;;;;;;9.70;4.87;;;15.70;85.60;;;;;;4425316;32;20155;-83
2021/05/11 05:21:12;;;;;;;7.80;4.53;;;15.70;86.00;;;;;;4425396;32;20158;-83
2021/05/11 05:23:43;;;;;;;7.90;4.63;;;15.80;86.00;;;;;;4425477;32;20150;-84
2021/05/11 05:26:11;;;;;;;8.07;4.90;;;15.90;85.60;;;;;;4425478;32;20154;-84
2021/05/11 05:28:40;;;;;;;8.80;4.83;;;15.90;85.30;;;;;;4425266;32;20207;-84
2021/05/11 05:31:08;;;;;;;10.53;4.90;;;16.10;85.10;;;;;;4424752;32;20200;-85
2021/05/11 05:33:37;;;;;;;7.37;4.67;;;16.10;85.50;;;;;;4425341;32;20437;-83
2021/05/11 05:36:05;;;;;;;9.03;4.80;;;16.20;84.30;;;;;;4425136;32;20212;-85
2021/05/11 05:38:33;;;;;;;11.33;5.13;;;16.40;83.70;;;;;;4424855;32;20474;-83
2021/05/11 05:41:03;;;;;;;9.33;4.70;;;16.40;83.30;;;;;;4424804;32;20162;-83
2021/05/11 05:43:30;;;;;;;10.33;5.10;;;16.50;83.00;;;;;;4425406;32;20143;-82
2021/05/11 05:45:57;;;;;;;10.67;4.70;;;16.60;82.50;;;;;;4424018;32;20158;-83
2021/05/11 05:48:24;;;;;;;7.67;4.97;;;16.70;81.60;;;;;;4424896;32;20163;-83
2021/05/11 05:50:55;;;;;;;10.23;5.17;;;16.70;81.00;;;;;;4424867;32;20202;-82
2021/05/11 05:53:29;;;;;;;11.97;4.90;;;16.80;79.40;;;;;;4425210;32;20225;-83
2021/05/11 05:55:56;;;;;;;14.00;5.40;;;16.80;80.10;;;;;;4426424;32;20196;-84
2021/05/11 05:58:23;;;;;;;10.53;5.20;;;16.90;79.80;;;;;;4424762;32;20440;-84
2021/05/11 06:00:57;;;;;;;6.77;4.47;;;17.00;78.90;;;;;;4424733;32;20169;-84
2021/05/11 06:03:38;;;;;;;10.37;5.00;;;17.10;79.50;;;;;;4425565;32;20155;-84
2021/05/11 06:06:08;;;;;;;8.93;4.90;;;17.10;78.40;;;;;;4424451;32;20506;-85
2021/05/11 06:08:40;;;;;;;10.13;5.00;;;17.20;78.50;;;;;;4425464;32;20143;-85
2021/05/11 06:11:19;;;;;;;9.73;5.00;;;17.30;78.80;;;;;;4424223;32;20174;-83
2021/05/11 06:19:17;;;;;;;10.53;4.73;;;17.60;75.60;;;;;;4425288;32;20163;-85
2021/05/11 06:21:44;;;;;;;7.47;4.70;;;17.60;76.00;;;;;;4424971;32;20238;-85
2021/05/11 06:24:11;;;;;;;9.43;4.87;;;17.80;76.30;;;;;;4424605;32;20181;-85
2021/05/11 06:26:43;;;;;;;9.00;5.10;;;17.80;75.10;;;;;;4424022;32;20276;-87
2021/05/11 06:29:17;;;;;;;9.90;5.03;;;17.90;74.80;;;;;;4424300;32;20186;-85
2021/05/11 06:31:45;;;;;;;10.30;5.10;;;17.90;74.40;;;;;;4424648;32;20186;-85
2021/05/11 06:34:12;;;;;;;8.17;4.70;;;18.00;74.20;;;;;;4424232;32;20212;-84
2021/05/11 06:36:38;;;;;;;8.47;4.67;;;18.10;73.10;;;;;;4424386;32;20200;-84
2021/05/11 06:39:09;;;;;;;7.27;4.63;;;18.10;73.40;;;;;;4424299;32;20186;-83
2021/05/11 06:41:38;;;;;;;7.20;4.70;;;18.20;72.70;;;;;;4423926;32;20208;-82
2021/05/11 06:44:10;;;;;;;8.47;4.90;;;18.30;72.30;;;;;;4425319;32;20528;-83
2021/05/11 06:54:11;;;;;;;8.53;4.50;;;18.80;71.00;;;;;;4423574;32;20170;-83
2021/05/11 06:56:41;;;;;;;8.20;4.50;;;18.90;71.30;;;;;;4424162;32;20504;-81
2021/05/11 06:59:08;;;;;;;6.73;4.00;;;18.90;70.00;;;;;;4426324;32;20397;-82
2021/05/11 07:01:35;;;;;;;6.37;4.30;;;19.00;69.80;;;;;;4424355;32;20431;-81
2021/05/11 07:04:03;;;;;;;6.67;3.83;;;19.10;70.00;;;;;;4424717;32;20457;-80
2021/05/11 07:06:30;;;;;;;10.23;4.23;;;19.20;70.00;;;;;;4424400;32;20146;-82
2021/05/11 07:09:02;;;;;;;7.93;4.30;;;19.40;69.70;;;;;;4410491;32;20165;-82
2021/05/11 07:13:08;;;;;;;6.70;3.67;;;19.50;68.30;;;;;;4423590;32;20196;-80
2021/05/11 07:14:17;;;;;;;7.00;3.83;;;19.50;68.60;;;;;;4424514;32;20143;-80
2021/05/11 07:16:45;;;;;;;7.17;4.30;;;19.70;68.60;;;;;;4423992;32;20166;-82
2021/05/11 07:19:12;;;;;;;7.60;3.97;;;19.80;67.60;;;;;;4423031;32;20202;-82
2021/05/11 07:21:39;;;;;;;11.07;4.17;;;19.90;66.60;;;;;;4424247;32;20201;-82
2021/05/11 07:24:07;;;;;;;6.93;4.20;;;19.90;66.50;;;;;;4425695;32;20155;-80
2021/05/11 07:26:43;;;;;;;4.40;3.63;;;20.10;65.40;;;;;;4428306;32;20158;-85
2021/05/11 07:32:13;;;;;;;8.00;3.80;;;20.30;64.00;;;;;;4363625;32;20494;-83
2021/05/11 07:34:43;;;;;;;5.03;4.00;;;20.40;65.10;;;;;;4364535;32;20168;-75
2021/05/11 07:37:11;;;;;;;6.33;3.80;;;20.40;66.10;;;;;;4364186;32;20405;-76
2021/05/11 07:39:40;;;;;;;7.30;3.70;;;20.70;66.70;;;;;;4363571;32;20330;-76
2021/05/11 07:42:07;;;;;;;5.70;3.83;;;20.70;64.20;;;;;;4363344;32;20191;-74
2021/05/11 07:44:37;;;;;;;5.63;3.67;;;20.90;63.60;;;;;;4363727;32;20144;-75
2021/05/11 07:50:11;;;;;;;8.00;4.47;;;21.10;63.30;;;;;;4364204;32;20472;-74
2021/05/11 08:15:04;;;;;;;8.93;3.42;;;23.40;56.20;;;;;;4363509;33;20318;-77
2021/05/11 08:17:35;;;;;;;6.72;3.40;;;24.20;53.70;;;;;;4364693;32;20209;-77
2021/05/11 08:28:00;;;;;;;6.53;4.18;;;25.60;50.10;;;;;;4364145;32;20191;-76
2021/05/11 08:30:28;;;;;;;8.65;4.43;;;26.00;48.90;;;;;;4363685;32;20189;-76
2021/05/11 08:32:55;;;;;;;5.93;4.10;;;26.00;47.70;;;;;;4364135;32;20152;-76
2021/05/11 08:35:22;;;;;;;7.03;3.80;;;25.90;49.90;;;;;;4362997;32;20175;-76
2021/05/11 08:37:49;;;;;;;6.30;3.95;;;26.20;48.50;;;;;;4363489;32;20152;-77
2021/05/11 08:40:16;;;;;;;5.95;3.65;;;26.70;48.40;;;;;;4364469;32;20453;-77
2021/05/11 08:42:43;;;;;;;8.18;4.03;;;26.70;46.80;;;;;;4364980;32;20487;-76
2021/05/11 08:45:12;;;;;;;6.95;3.72;;;26.90;47.10;;;;;;4403919;32;20177;-78
2021/05/11 08:47:51;;;;;;;9.05;3.87;;;27.00;47.40;;;;;;4425899;32;20147;-77
2021/05/11 08:50:22;;;;;;;8.70;3.97;;;27.00;46.50;;;;;;4426053;32;20143;-77
2021/05/11 09:24:02;;;;;;;7.57;3.70;;;27.50;46.00;;;;;;4425096;32;20208;-78
2021/05/11 09:56:58;;;;;;;6.43;3.58;;;28.90;42.30;;;;;;4424454;32;20457;-76
2021/05/11 10:00:33;;;;;;;6.80;3.65;;;29.30;42.50;;;;;;4419839;32;20153;-74
2021/05/11 10:39:16;;;;;;;4.82;2.70;;;31.50;37.70;;;;;;4392468;32;20217;-74
2021/05/11 10:41:56;;;;;;;8.50;2.80;;;31.90;37.20;;;;;;4403704;32;20190;-77
2021/05/11 10:48:30;;;;;;;4.43;2.70;;;31.90;36.80;;;;;;4385524;32;20226;-74
2021/05/11 10:50:59;;;;;;;7.10;2.90;;;32.40;36.80;;;;;;4408629;32;20155;-75
2021/05/11 10:53:39;;;;;;;4.30;2.70;;;32.50;35.80;;;;;;4408900;32;20442;-74
2021/05/11 10:56:30;;;;;;;7.15;3.00;;;32.20;36.10;;;;;;4408958;32;20391;-73
2021/05/11 11:01:40;;;;;;;6.93;2.70;;;32.10;35.70;;;;;;4412367;32;20158;-74
2021/05/11 11:04:32;;;;;;;4.70;2.50;;;32.40;35.70;;;;;;4416599;32;20208;-74
2021/05/11 11:07:07;;;;;;;5.53;2.75;;;32.50;36.10;;;;;;4427889;32;20511;-74
2021/05/11 11:09:38;;;;;;;4.82;2.58;;;32.80;35.00;;;;;;4427489;32;20187;-75
2021/05/11 11:12:08;;;;;;;6.78;2.60;;;32.60;34.90;;;;;;4425883;32;20151;-74
2021/05/11 11:14:41;;;;;;;6.85;2.95;;;32.60;35.30;;;;;;4428488;32;20217;-74
2021/05/11 11:17:11;;;;;;;6.95;2.80;;;32.50;35.00;;;;;;4412326;32;20174;-74
2021/05/11 11:19:38;;;;;;;5.90;2.70;;;32.60;35.10;;;;;;4426659;32;20147;-75
2021/05/11 11:24:59;;;;;;;6.22;3.03;;;32.60;36.00;;;;;;4428180;32;20135;-75
2021/05/11 11:27:27;;;;;;;5.95;2.83;;;32.90;35.40;;;;;;4426950;32;20192;-74
2021/05/11 11:30:08;;;;;;;8.13;2.83;;;33.00;34.90;;;;;;4426969;32;20138;-75
2021/05/11 11:32:36;;;;;;;8.57;2.80;;;32.70;34.40;;;;;;4426833;32;20181;-75
2021/05/11 11:35:06;;;;;;;3.20;2.55;;;33.10;34.50;;;;;;4426996;32;20197;-75
2021/05/11 11:37:33;;;;;;;7.57;3.05;;;33.10;34.80;;;;;;4426766;32;20487;-74
2021/05/11 11:40:04;;;;;;;7.70;2.80;;;33.30;34.20;;;;;;4412202;32;20202;-74
2021/05/11 11:42:35;;;;;;;5.10;2.78;;;32.70;34.60;;;;;;4426356;32;20259;-74
2021/05/11 11:45:04;;;;;;;5.68;2.85;;;32.80;35.40;;;;;;4426022;32;20254;-74
2021/05/11 11:47:40;;;;;;;5.50;2.83;;;32.90;35.00;;;;;;4426397;32;20434;-74
2021/05/11 11:50:11;;;;;;;6.68;2.90;;;33.30;34.80;;;;;;4412283;32;20231;-74
2021/05/11 11:55:36;;;;;;;4.70;2.75;;;34.00;33.80;;;;;;4426236;32;20480;-74
2021/05/11 11:58:03;;;;;;;5.07;2.65;;;34.00;33.70;;;;;;4417690;32;20178;-73
2021/05/11 12:00:35;;;;;;;7.18;3.03;;;34.20;33.90;;;;;;4397981;32;20143;-76
2021/05/11 12:03:12;;;;;;;6.75;2.65;;;34.20;32.70;;;;;;4424290;32;20586;-75
2021/05/11 12:05:48;;;;;;;4.90;2.80;;;33.80;33.50;;;;;;4426727;32;20171;-73
2021/05/11 12:08:26;;;;;;;7.30;2.83;;;34.40;33.60;;;;;;4426494;32;20143;-72
2021/05/11 12:11:00;;;;;;;4.82;2.60;;;34.70;33.00;;;;;;4427238;32;20173;-71
2021/05/11 12:13:29;;;;;;;12.40;3.30;;;34.30;32.60;;;;;;4426422;32;20162;-71
2021/05/11 12:16:17;;;;;;;4.07;2.60;;;34.10;33.20;;;;;;4425758;32;20208;-73
2021/05/11 12:19:09;;;;;;;9.07;2.87;;;33.80;33.10;;;;;;4426487;32;20151;-71
2021/05/11 12:22:02;;;;;;;3.22;2.62;;;34.20;33.70;;;;;;4426365;32;20158;-71
2021/05/11 12:24:34;;;;;;;5.32;2.60;;;34.20;33.10;;;;;;4426499;32;20154;-70
2021/05/11 12:27:20;;;;;;;8.32;3.33;;;34.10;32.60;;;;;;4425711;32;20202;-72
2021/05/11 12:30:08;;;;;;;6.60;2.80;;;33.90;33.00;;;;;;4426849;32;20193;-71
2021/05/11 12:32:36;;;;;;;4.35;2.67;;;33.90;33.30;;;;;;4426572;32;20196;-71
2021/05/11 12:35:07;;;;;;;6.18;2.90;;;33.70;33.50;;;;;;4425952;32;20178;-71
2021/05/11 12:37:43;;;;;;;5.25;2.78;;;33.50;33.70;;;;;;4427604;32;20504;-72
2021/05/11 12:40:23;;;;;;;6.12;3.00;;;33.40;33.70;;;;;;4425817;32;20150;-72
2021/05/11 12:42:50;;;;;;;5.80;2.90;;;33.40;33.40;;;;;;4427727;32;20150;-72
2021/05/11 12:45:18;;;;;;;3.83;2.80;;;33.80;33.60;;;;;;4426495;32;20139;-70
2021/05/11 12:47:52;;;;;;;7.35;3.00;;;33.80;33.30;;;;;;4425937;32;20399;-71
2021/05/11 12:50:22;;;;;;;7.15;2.80;;;33.80;34.40;;;;;;4427393;32;20164;-70
2021/05/11 12:53:03;;;;;;;5.72;2.83;;;33.80;33.40;;;;;;4426131;32;20167;-73
2021/05/11 12:56:00;;;;;;;5.47;2.90;;;33.70;33.80;;;;;;4425793;32;20139;-70
2021/05/11 13:01:25;;;;;;;4.87;3.10;;;34.00;33.40;;;;;;4425452;32;20138;-73
2021/05/11 13:26:27;;;;;;;4.68;2.92;;;33.30;34.50;;;;;;4396452;32;20143;-72
2021/05/11 13:29:02;;;;;;;5.28;2.87;;;33.40;33.80;;;;;;4396361;32;20234;-71
2021/05/11 13:31:43;;;;;;;9.32;2.95;;;33.60;33.20;;;;;;4395100;32;20194;-73
2021/05/11 13:34:13;;;;;;;4.57;2.90;;;33.90;33.90;;;;;;4396514;32;20169;-71
2021/05/11 13:36:41;;;;;;;7.68;3.22;;;34.60;32.10;;;;;;4396000;32;20465;-69
2021/05/11 13:39:10;;;;;;;5.68;2.47;;;34.80;32.20;;;;;;4394606;32;20151;-72
2021/05/11 13:41:38;;;;;;;4.95;3.03;;;34.80;31.70;;;;;;4404299;32;20236;-73
2021/05/11 13:44:05;;;;;;;6.75;2.90;;;34.60;31.80;;;;;;4410335;32;20151;-73
2021/05/11 13:46:32;;;;;;;7.72;2.72;;;34.70;31.60;;;;;;4409723;32;20446;-73
2021/05/11 13:48:59;;;;;;;7.53;2.97;;;35.10;31.70;;;;;;4410067;32;20159;-73
2021/05/11 13:51:26;;;;;;;5.10;2.90;;;35.70;31.50;;;;;;4411127;32;20360;-73
2021/05/11 13:53:57;;;;;;;4.90;2.83;;;36.20;30.30;;;;;;4409572;32;20143;-74
2021/05/11 14:04:30;;;;;;;7.22;2.78;;;35.20;30.50;;;;;;4410310;32;20176;-72
2021/05/11 14:06:57;;;;;;;4.53;2.58;;;35.00;30.40;;;;;;4409774;32;20212;-72
2021/05/11 14:09:26;;;;;;;5.57;2.72;;;35.00;30.40;;;;;;4409429;32;20423;-72
2021/05/11 14:11:53;;;;;;;7.10;2.42;;;35.30;30.80;;;;;;4421726;32;20146;-72
2021/05/11 14:14:21;;;;;;;4.87;2.60;;;34.90;31.20;;;;;;4424149;32;20432;-70
2021/05/11 14:16:48;;;;;;;8.15;2.45;;;34.80;31.40;;;;;;4424612;32;20170;-72
2021/05/11 14:19:18;;;;;;;4.80;2.55;;;35.20;31.10;;;;;;4424508;32;20210;-73
2021/05/11 14:21:46;;;;;;;7.68;2.60;;;35.10;30.40;;;;;;4424313;32;20534;-73
2021/05/11 14:24:14;;;;;;;7.22;2.37;;;34.70;30.50;;;;;;4425805;32;20317;-73
2021/05/11 14:26:41;;;;;;;4.62;2.55;;;34.40;31.10;;;;;;4424308;32;20389;-74
2021/05/11 14:29:08;;;;;;;4.72;2.50;;;34.60;30.80;;;;;;4424876;32;20178;-74
2021/05/11 14:31:35;;;;;;;5.47;2.30;;;34.60;31.00;;;;;;4424270;32;20469;-76
2021/05/11 14:34:05;;;;;;;6.30;2.35;;;34.50;31.20;;;;;;4424199;32;20147;-72
2021/05/11 14:36:32;;;;;;;5.97;2.10;;;34.40;32.10;;;;;;4425522;32;20134;-73
2021/05/11 14:38:59;;;;;;;5.18;2.30;;;34.70;31.40;;;;;;4424131;32;20393;-73
2021/05/11 14:41:26;;;;;;;4.62;2.15;;;34.80;31.20;;;;;;4424053;32;20222;-73
2021/05/11 14:43:53;;;;;;;4.32;2.00;;;34.90;31.40;;;;;;4424059;32;20409;-73
2021/05/11 14:46:20;;;;;;;6.03;2.20;;;35.20;31.20;;;;;;4424046;32;20142;-72
2021/05/11 14:48:47;;;;;;;5.40;2.12;;;35.10;30.90;;;;;;4423816;32;20147;-72
2021/05/11 14:51:14;;;;;;;5.53;2.08;;;35.10;30.50;;;;;;4424059;32;20147;-73
2021/05/11 14:53:42;;;;;;;7.30;2.28;;;35.10;30.50;;;;;;4424130;32;20166;-73
2021/05/11 14:56:09;;;;;;;4.55;2.20;;;35.60;30.30;;;;;;4424711;32;20198;-71
2021/05/11 14:58:36;;;;;;;5.45;2.30;;;36.00;30.10;;;;;;4424683;32;20207;-71
2021/05/11 15:01:04;;;;;;;2.95;2.17;;;35.90;29.50;;;;;;4423744;32;20186;-71
2021/05/11 15:03:31;;;;;;;6.12;2.40;;;36.20;29.60;;;;;;4423749;32;20410;-69
2021/05/11 15:06:15;;;;;;;6.18;1.90;;;36.40;29.30;;;;;;4424105;32;20219;-72
2021/05/11 15:08:42;;;;;;;5.95;2.10;;;36.40;29.40;;;;;;4424341;32;20189;-72
2021/05/11 15:11:09;;;;;;;6.60;1.70;;;36.80;29.10;;;;;;4423818;32;20185;-72
2021/05/11 15:13:36;;;;;;;6.18;2.03;;;36.40;29.10;;;;;;4423807;32;20154;-69
2021/05/11 15:16:07;;;;;;;6.05;2.03;;;35.70;29.40;;;;;;4423682;32;20509;-72
2021/05/11 15:18:34;;;;;;;3.78;2.37;;;35.20;29.80;;;;;;4424591;32;20220;-70
2021/05/11 15:21:02;;;;;;;6.00;2.22;;;35.10;30.00;;;;;;4423597;32;20166;-71
2021/05/11 15:23:30;;;;;;;5.15;2.05;;;34.80;30.50;;;;;;4424263;32;20202;-70
2021/05/11 15:25:57;;;;;;;3.42;2.10;;;35.00;30.10;;;;;;4425220;32;20143;-71
2021/05/11 15:28:24;;;;;;;7.53;2.33;;;35.50;30.00;;;;;;4423750;32;20215;-70
2021/05/11 15:30:51;;;;;;;6.85;2.15;;;35.20;30.10;;;;;;4423535;32;20143;-72
2021/05/11 15:33:17;;;;;;;3.97;2.10;;;34.60;30.10;;;;;;4423898;32;20155;-74
2021/05/11 15:35:44;;;;;;;5.15;2.28;;;35.00;30.60;;;;;;4424755;32;20437;-74
2021/05/11 15:38:12;;;;;;;6.55;2.10;;;35.20;30.40;;;;;;4425027;32;20150;-74
2021/05/11 15:40:41;;;;;;;7.90;2.30;;;34.90;30.10;;;;;;4423628;32;20193;-72
2021/05/11 15:43:09;;;;;;;7.32;2.12;;;35.20;30.00;;;;;;4423686;32;20192;-74
2021/05/11 15:45:37;;;;;;;5.70;2.30;;;35.40;29.90;;;;;;4425298;32;20481;-72
2021/05/11 15:48:08;;;;;;;3.53;1.95;;;35.10;29.90;;;;;;4426200;32;20467;-73
2021/05/11 15:50:37;;;;;;;8.95;2.28;;;34.80;30.40;;;;;;4425845;32;20158;-73
2021/05/11 15:53:06;;;;;;;7.32;2.30;;;34.80;30.20;;;;;;4427868;32;20288;-71
2021/05/11 15:55:40;;;;;;;4.20;1.90;;;34.50;30.50;;;;;;4425526;32;20193;-74
2021/05/11 15:58:09;;;;;;;4.40;2.17;;;34.00;30.30;;;;;;4425330;32;20178;-73
2021/05/11 16:00:37;;;;;;;5.43;1.83;;;33.90;31.30;;;;;;4424628;32;20500;-74
2021/05/11 16:03:05;;;;;;;7.15;2.30;;;34.00;31.10;;;;;;4424750;32;20186;-73
2021/05/11 16:05:37;;;;;;;3.40;2.05;;;33.70;31.30;;;;;;4424672;32;20174;-73
2021/05/11 16:08:09;;;;;;;4.47;2.20;;;33.20;31.70;;;;;;4425714;32;20190;-76
2021/05/11 16:10:37;;;;;;;6.50;2.30;;;32.50;33.00;;;;;;4423742;32;20526;-74
2021/05/11 16:13:04;;;;;;;4.07;2.17;;;32.80;32.80;;;;;;4422722;32;20209;-73
2021/05/11 16:15:31;;;;;;;3.53;1.92;;;32.40;33.30;;;;;;4423642;32;20209;-73
2021/05/11 16:17:59;;;;;;;4.15;2.35;;;32.20;33.60;;;;;;4423421;32;20206;-71
2021/05/11 16:20:26;;;;;;;4.78;2.20;;;32.10;33.60;;;;;;4423597;32;20234;-74
2021/05/11 16:22:54;;;;;;;4.78;2.20;;;31.40;34.00;;;;;;4424312;32;20492;-72
2021/05/11 16:25:23;;;;;;;3.62;2.17;;;31.00;34.80;;;;;;4410515;32;20217;-72
2021/05/11 16:27:56;;;;;;;5.22;2.25;;;30.70;35.00;;;;;;4419489;32;20498;-76
2021/05/11 16:30:24;;;;;;;4.20;2.03;;;30.60;35.70;;;;;;4408089;32;20625;-72
2021/05/11 16:32:51;;;;;;;6.50;2.40;;;30.30;36.00;;;;;;4424104;32;20535;-71
2021/05/11 16:35:18;;;;;;;3.03;2.20;;;29.70;36.70;;;;;;4422206;32;20220;-70
2021/05/11 16:37:45;;;;;;;6.12;2.37;;;29.10;37.70;;;;;;4427200;32;20236;-71
2021/05/11 16:40:13;;;;;;;7.37;2.25;;;28.70;38.90;;;;;;4423724;32;20159;-73
2021/05/11 16:42:41;;;;;;;8.57;2.50;;;28.40;39.20;;;;;;4411831;32;20202;-71
2021/05/11 16:45:19;;;;;;;5.07;2.37;;;28.00;39.90;;;;;;4410928;32;20155;-74
2021/05/11 16:47:55;;;;;;;5.55;2.28;;;27.70;40.60;;;;;;4391900;32;20454;-72
2021/05/11 16:50:24;;;;;;;6.62;2.40;;;27.40;41.20;;;;;;4398015;32;20147;-71
2021/05/11 16:52:52;;;;;;;6.35;2.40;;;26.90;42.20;;;;;;4394398;32;20177;-69
2021/05/11 16:55:20;;;;;;;7.07;2.40;;;26.70;42.40;;;;;;4406095;32;20270;-71
2021/05/11 16:57:47;;;;;;;7.12;2.53;;;26.60;42.40;;;;;;4409605;32;20167;-72
2021/05/11 17:00:14;;;;;;;5.47;2.50;;;26.50;42.90;;;;;;4409149;32;20591;-72
2021/05/11 17:02:41;;;;;;;5.50;2.22;;;26.20;43.30;;;;;;4409635;32;20166;-71